Latest Weather Forecast - Friday 30th September 2022 (6 am)

Forecast Period: 

6 am 30th September, 2022 to 12 noon 30th September,2022

Synopsis:
Unstable conditions  are affecting the islands
Forecast:
Mostly cloudy with light showers at first, becoming cloudy to overcast with a chance of pockets of moderate to heavy showers, periods of rain and isolated thunderstorms

Weather Advisory:

A flash flood watch remains in effect until 6 pm today Friday 30th September 2022. Residents and motorists in areas prone to flash-flooding or near rivers and streams should continue to exercise caution

Winds :

SE at 10- 30 km/h (6-19 mph) 
Sea Conditions:
Slight to moderate in open water with swells from 1.0 to 1.5 m

Marine 

Advisory/Warning:

None

Upcoming Tides:
High: 09:00 am 11:02 pm
Low:   **** 05:28 pm 

Aviation WX

[Source: ADDS]
METAR
TVSA 052200Z 00000KT 9999 FEW020 26/21 Q1009 NOSIG =
TVSA 051700Z 0518/0618 VRB02KT 9999 SCT018 PROB30 TEMPO 0518/0521 SHRA BKN015
TAF
TVSA 051700Z 0518/0618 VRB02KT 9999 SCT018 PROB30 TEMPO 0518/0521 SHRA BKN015 =
SR / SS: 10:13 / 21:36 UTC (Sunrise Sunset 2022-12-05)